sensor_id;sensor_type;location;lat;lon;timestamp;P1;durP1;ratioP1;P2;durP2;ratioP2
14754;SDS011;7469;50.906;6.952;2022-07-11T00:02:27;4.67;;;2.20;;
14754;SDS011;7469;50.906;6.952;2022-07-11T00:04:55;5.27;;;2.30;;
14754;SDS011;7469;50.906;6.952;2022-07-11T00:07:23;4.90;;;2.13;;
14754;SDS011;7469;50.906;6.952;2022-07-11T00:09:52;3.40;;;2.10;;
14754;SDS011;7469;50.906;6.952;2022-07-11T00:12:20;4.07;;;1.93;;
14754;SDS011;7469;50.906;6.952;2022-07-11T00:14:51;2.80;;;2.03;;
14754;SDS011;7469;50.906;6.952;2022-07-11T00:17:19;4.70;;;2.40;;
14754;SDS011;7469;50.906;6.952;2022-07-11T00:19:47;8.50;;;2.10;;
14754;SDS011;7469;50.906;6.952;2022-07-11T00:22:16;4.17;;;2.37;;
14754;SDS011;7469;50.906;6.952;2022-07-11T00:24:44;7.13;;;2.10;;
14754;SDS011;7469;50.906;6.952;2022-07-11T00:27:13;3.87;;;2.27;;
14754;SDS011;7469;50.906;6.952;2022-07-11T00:29:41;4.10;;;2.20;;
14754;SDS011;7469;50.906;6.952;2022-07-11T00:32:10;6.00;;;2.30;;
14754;SDS011;7469;50.906;6.952;2022-07-11T00:34:38;3.50;;;2.10;;
14754;SDS011;7469;50.906;6.952;2022-07-11T00:37:06;3.47;;;2.07;;
14754;SDS011;7469;50.906;6.952;2022-07-11T00:39:35;3.47;;;2.40;;
14754;SDS011;7469;50.906;6.952;2022-07-11T00:42:03;4.07;;;2.27;;
14754;SDS011;7469;50.906;6.952;2022-07-11T00:44:33;6.00;;;2.37;;
14754;SDS011;7469;50.906;6.952;2022-07-11T00:47:02;3.27;;;2.17;;
14754;SDS011;7469;50.906;6.952;2022-07-11T00:49:31;6.47;;;2.40;;
14754;SDS011;7469;50.906;6.952;2022-07-11T00:51:59;5.27;;;2.43;;
14754;SDS011;7469;50.906;6.952;2022-07-11T00:54:27;5.57;;;2.73;;
14754;SDS011;7469;50.906;6.952;2022-07-11T00:56:57;3.97;;;2.10;;
14754;SDS011;7469;50.906;6.952;2022-07-11T00:59:25;7.80;;;2.53;;
14754;SDS011;7469;50.906;6.952;2022-07-11T01:01:55;4.53;;;2.67;;
14754;SDS011;7469;50.906;6.952;2022-07-11T01:04:24;4.67;;;2.17;;
14754;SDS011;7469;50.906;6.952;2022-07-11T01:06:52;5.30;;;2.40;;
14754;SDS011;7469;50.906;6.952;2022-07-11T01:09:20;3.77;;;2.10;;
14754;SDS011;7469;50.906;6.952;2022-07-11T01:11:48;4.57;;;2.47;;
14754;SDS011;7469;50.906;6.952;2022-07-11T01:14:16;4.53;;;2.00;;
14754;SDS011;7469;50.906;6.952;2022-07-11T01:16:44;4.13;;;2.17;;
14754;SDS011;7469;50.906;6.952;2022-07-11T01:19:14;4.03;;;2.37;;
14754;SDS011;7469;50.906;6.952;2022-07-11T01:21:42;3.43;;;2.17;;
14754;SDS011;7469;50.906;6.952;2022-07-11T01:24:14;3.77;;;2.50;;
14754;SDS011;7469;50.906;6.952;2022-07-11T01:26:48;5.47;;;2.87;;
14754;SDS011;7469;50.906;6.952;2022-07-11T01:29:18;4.73;;;2.53;;
14754;SDS011;7469;50.906;6.952;2022-07-11T01:31:46;4.73;;;2.47;;
14754;SDS011;7469;50.906;6.952;2022-07-11T01:34:14;5.20;;;2.13;;
14754;SDS011;7469;50.906;6.952;2022-07-11T01:36:43;5.50;;;2.50;;
14754;SDS011;7469;50.906;6.952;2022-07-11T01:39:11;5.70;;;2.30;;
14754;SDS011;7469;50.906;6.952;2022-07-11T01:41:40;3.57;;;2.00;;
14754;SDS011;7469;50.906;6.952;2022-07-11T01:44:08;4.73;;;2.40;;
14754;SDS011;7469;50.906;6.952;2022-07-11T01:46:36;4.73;;;2.43;;
14754;SDS011;7469;50.906;6.952;2022-07-11T01:49:04;5.67;;;2.70;;
14754;SDS011;7469;50.906;6.952;2022-07-11T01:51:34;4.67;;;2.33;;
14754;SDS011;7469;50.906;6.952;2022-07-11T01:54:02;6.70;;;2.40;;
14754;SDS011;7469;50.906;6.952;2022-07-11T01:56:30;5.93;;;2.80;;
14754;SDS011;7469;50.906;6.952;2022-07-11T01:59:00;4.90;;;2.53;;
14754;SDS011;7469;50.906;6.952;2022-07-11T02:01:28;5.90;;;2.90;;
14754;SDS011;7469;50.906;6.952;2022-07-11T02:03:57;5.20;;;2.73;;
14754;SDS011;7469;50.906;6.952;2022-07-11T02:06:25;5.60;;;2.40;;
14754;SDS011;7469;50.906;6.952;2022-07-11T02:08:53;8.17;;;2.53;;
14754;SDS011;7469;50.906;6.952;2022-07-11T02:11:21;5.57;;;2.87;;
14754;SDS011;7469;50.906;6.952;2022-07-11T02:13:50;7.67;;;2.77;;
14754;SDS011;7469;50.906;6.952;2022-07-11T02:16:19;5.37;;;2.97;;
14754;SDS011;7469;50.906;6.952;2022-07-11T02:18:48;4.10;;;2.60;;
14754;SDS011;7469;50.906;6.952;2022-07-11T02:21:16;7.20;;;3.00;;
14754;SDS011;7469;50.906;6.952;2022-07-11T02:23:45;9.47;;;3.40;;
14754;SDS011;7469;50.906;6.952;2022-07-11T02:26:13;6.53;;;2.80;;
14754;SDS011;7469;50.906;6.952;2022-07-11T02:28:41;6.83;;;3.10;;
14754;SDS011;7469;50.906;6.952;2022-07-11T02:31:09;6.57;;;2.97;;
14754;SDS011;7469;50.906;6.952;2022-07-11T02:33:38;6.87;;;3.30;;
14754;SDS011;7469;50.906;6.952;2022-07-11T02:36:07;6.13;;;3.10;;
14754;SDS011;7469;50.906;6.952;2022-07-11T02:38:35;4.13;;;3.10;;
14754;SDS011;7469;50.906;6.952;2022-07-11T02:41:03;6.60;;;3.17;;
14754;SDS011;7469;50.906;6.952;2022-07-11T02:43:32;6.87;;;3.50;;
14754;SDS011;7469;50.906;6.952;2022-07-11T02:46:00;7.37;;;3.00;;
14754;SDS011;7469;50.906;6.952;2022-07-11T02:48:28;6.10;;;3.07;;
14754;SDS011;7469;50.906;6.952;2022-07-11T02:50:58;9.37;;;3.60;;
14754;SDS011;7469;50.906;6.952;2022-07-11T02:53:26;4.67;;;3.47;;
14754;SDS011;7469;50.906;6.952;2022-07-11T02:55:54;5.33;;;3.20;;
14754;SDS011;7469;50.906;6.952;2022-07-11T02:58:22;6.10;;;3.47;;
14754;SDS011;7469;50.906;6.952;2022-07-11T03:00:50;5.63;;;3.97;;
14754;SDS011;7469;50.906;6.952;2022-07-11T03:03:18;7.20;;;3.67;;
14754;SDS011;7469;50.906;6.952;2022-07-11T03:05:46;6.83;;;3.80;;
14754;SDS011;7469;50.906;6.952;2022-07-11T03:08:16;4.50;;;3.57;;
14754;SDS011;7469;50.906;6.952;2022-07-11T03:10:44;6.17;;;3.90;;
14754;SDS011;7469;50.906;6.952;2022-07-11T03:13:12;7.23;;;4.10;;
14754;SDS011;7469;50.906;6.952;2022-07-11T03:15:40;7.00;;;4.37;;
14754;SDS011;7469;50.906;6.952;2022-07-11T03:18:08;8.07;;;4.00;;
14754;SDS011;7469;50.906;6.952;2022-07-11T03:20:36;8.00;;;3.63;;
14754;SDS011;7469;50.906;6.952;2022-07-11T03:23:04;8.63;;;4.20;;
14754;SDS011;7469;50.906;6.952;2022-07-11T03:25:33;6.27;;;3.53;;
14754;SDS011;7469;50.906;6.952;2022-07-11T03:28:02;9.47;;;3.70;;
14754;SDS011;7469;50.906;6.952;2022-07-11T03:30:30;6.03;;;3.60;;
14754;SDS011;7469;50.906;6.952;2022-07-11T03:32:58;5.10;;;3.20;;
14754;SDS011;7469;50.906;6.952;2022-07-11T03:35:26;4.73;;;3.50;;
14754;SDS011;7469;50.906;6.952;2022-07-11T03:38:09;10.77;;;4.03;;
14754;SDS011;7469;50.906;6.952;2022-07-11T03:40:40;6.60;;;4.03;;
14754;SDS011;7469;50.906;6.952;2022-07-11T03:43:08;6.77;;;3.80;;
14754;SDS011;7469;50.906;6.952;2022-07-11T03:45:36;8.07;;;4.00;;
14754;SDS011;7469;50.906;6.952;2022-07-11T03:48:04;6.83;;;4.00;;
14754;SDS011;7469;50.906;6.952;2022-07-11T03:50:33;5.60;;;3.60;;
14754;SDS011;7469;50.906;6.952;2022-07-11T03:53:02;12.93;;;4.50;;
14754;SDS011;7469;50.906;6.952;2022-07-11T03:55:30;7.90;;;4.30;;
14754;SDS011;7469;50.906;6.952;2022-07-11T03:58:00;6.87;;;4.20;;
14754;SDS011;7469;50.906;6.952;2022-07-11T04:00:28;6.20;;;3.80;;
14754;SDS011;7469;50.906;6.952;2022-07-11T04:02:56;8.27;;;3.83;;
14754;SDS011;7469;50.906;6.952;2022-07-11T04:05:25;7.40;;;3.83;;
14754;SDS011;7469;50.906;6.952;2022-07-11T04:07:53;7.53;;;3.73;;
14754;SDS011;7469;50.906;6.952;2022-07-11T04:10:22;6.10;;;3.93;;
14754;SDS011;7469;50.906;6.952;2022-07-11T04:12:50;7.87;;;4.10;;
14754;SDS011;7469;50.906;6.952;2022-07-11T04:15:20;9.33;;;4.20;;
14754;SDS011;7469;50.906;6.952;2022-07-11T04:17:48;8.30;;;4.10;;
14754;SDS011;7469;50.906;6.952;2022-07-11T04:20:16;7.53;;;4.60;;
14754;SDS011;7469;50.906;6.952;2022-07-11T04:22:44;5.57;;;3.73;;
14754;SDS011;7469;50.906;6.952;2022-07-11T04:25:12;7.23;;;4.23;;
14754;SDS011;7469;50.906;6.952;2022-07-11T04:27:40;8.20;;;4.60;;
14754;SDS011;7469;50.906;6.952;2022-07-11T04:30:08;7.37;;;3.80;;
14754;SDS011;7469;50.906;6.952;2022-07-11T04:32:38;7.67;;;4.47;;
14754;SDS011;7469;50.906;6.952;2022-07-11T04:35:06;5.20;;;4.30;;
14754;SDS011;7469;50.906;6.952;2022-07-11T04:37:35;5.60;;;4.07;;
14754;SDS011;7469;50.906;6.952;2022-07-11T04:40:03;8.40;;;4.50;;
14754;SDS011;7469;50.906;6.952;2022-07-11T04:42:38;9.50;;;4.10;;
14754;SDS011;7469;50.906;6.952;2022-07-11T04:45:07;9.20;;;4.20;;
14754;SDS011;7469;50.906;6.952;2022-07-11T04:47:35;9.13;;;4.50;;
14754;SDS011;7469;50.906;6.952;2022-07-11T04:50:05;9.70;;;4.33;;
14754;SDS011;7469;50.906;6.952;2022-07-11T04:52:33;7.27;;;3.93;;
14754;SDS011;7469;50.906;6.952;2022-07-11T04:55:02;6.60;;;4.40;;
14754;SDS011;7469;50.906;6.952;2022-07-11T04:57:30;8.27;;;4.17;;
14754;SDS011;7469;50.906;6.952;2022-07-11T04:59:58;6.77;;;4.17;;
14754;SDS011;7469;50.906;6.952;2022-07-11T05:02:26;8.77;;;4.07;;
14754;SDS011;7469;50.906;6.952;2022-07-11T05:04:54;7.23;;;4.03;;
14754;SDS011;7469;50.906;6.952;2022-07-11T05:07:24;6.20;;;3.63;;
14754;SDS011;7469;50.906;6.952;2022-07-11T05:09:52;10.53;;;4.30;;
14754;SDS011;7469;50.906;6.952;2022-07-11T05:12:19;6.63;;;3.70;;
14754;SDS011;7469;50.906;6.952;2022-07-11T05:14:47;8.73;;;4.40;;
14754;SDS011;7469;50.906;6.952;2022-07-11T05:17:15;7.53;;;3.60;;
14754;SDS011;7469;50.906;6.952;2022-07-11T05:19:43;9.07;;;4.40;;
14754;SDS011;7469;50.906;6.952;2022-07-11T05:22:11;8.87;;;3.80;;
14754;SDS011;7469;50.906;6.952;2022-07-11T05:24:41;8.53;;;3.93;;
14754;SDS011;7469;50.906;6.952;2022-07-11T05:27:09;5.93;;;3.97;;
14754;SDS011;7469;50.906;6.952;2022-07-11T05:29:37;6.93;;;3.77;;
14754;SDS011;7469;50.906;6.952;2022-07-11T05:32:05;7.93;;;4.27;;
14754;SDS011;7469;50.906;6.952;2022-07-11T05:34:34;9.10;;;4.10;;
14754;SDS011;7469;50.906;6.952;2022-07-11T05:37:02;9.77;;;4.53;;
14754;SDS011;7469;50.906;6.952;2022-07-11T05:39:30;7.10;;;4.33;;
14754;SDS011;7469;50.906;6.952;2022-07-11T05:41:59;7.23;;;4.10;;
14754;SDS011;7469;50.906;6.952;2022-07-11T05:44:27;8.77;;;4.77;;
14754;SDS011;7469;50.906;6.952;2022-07-11T05:46:58;7.63;;;4.10;;
14754;SDS011;7469;50.906;6.952;2022-07-11T05:49:27;7.23;;;3.70;;
14754;SDS011;7469;50.906;6.952;2022-07-11T05:51:58;6.53;;;3.97;;
14754;SDS011;7469;50.906;6.952;2022-07-11T05:54:26;6.57;;;3.97;;
14754;SDS011;7469;50.906;6.952;2022-07-11T05:56:54;8.43;;;4.23;;
14754;SDS011;7469;50.906;6.952;2022-07-11T05:59:23;10.70;;;4.37;;
14754;SDS011;7469;50.906;6.952;2022-07-11T06:01:52;7.70;;;3.80;;
14754;SDS011;7469;50.906;6.952;2022-07-11T06:04:20;7.00;;;4.47;;
14754;SDS011;7469;50.906;6.952;2022-07-11T06:06:48;7.40;;;4.20;;
14754;SDS011;7469;50.906;6.952;2022-07-11T06:09:16;9.53;;;4.93;;
14754;SDS011;7469;50.906;6.952;2022-07-11T06:11:44;5.80;;;4.27;;
14754;SDS011;7469;50.906;6.952;2022-07-11T06:14:12;8.17;;;4.53;;
14754;SDS011;7469;50.906;6.952;2022-07-11T06:16:41;12.77;;;4.07;;
14754;SDS011;7469;50.906;6.952;2022-07-11T06:19:09;10.50;;;4.80;;
14754;SDS011;7469;50.906;6.952;2022-07-11T06:21:37;10.93;;;5.13;;
14754;SDS011;7469;50.906;6.952;2022-07-11T06:24:05;9.00;;;4.60;;
14754;SDS011;7469;50.906;6.952;2022-07-11T06:26:34;9.53;;;4.43;;
14754;SDS011;7469;50.906;6.952;2022-07-11T06:29:02;7.93;;;4.53;;
14754;SDS011;7469;50.906;6.952;2022-07-11T06:31:30;6.07;;;3.90;;
14754;SDS011;7469;50.906;6.952;2022-07-11T06:34:00;5.60;;;4.10;;
14754;SDS011;7469;50.906;6.952;2022-07-11T06:36:28;7.40;;;4.13;;
14754;SDS011;7469;50.906;6.952;2022-07-11T06:38:56;7.43;;;4.20;;
14754;SDS011;7469;50.906;6.952;2022-07-11T06:41:24;6.40;;;4.23;;
14754;SDS011;7469;50.906;6.952;2022-07-11T06:43:52;8.50;;;4.50;;
14754;SDS011;7469;50.906;6.952;2022-07-11T06:46:22;7.27;;;4.53;;
14754;SDS011;7469;50.906;6.952;2022-07-11T06:48:53;9.90;;;4.70;;
14754;SDS011;7469;50.906;6.952;2022-07-11T06:51:22;10.77;;;4.70;;
14754;SDS011;7469;50.906;6.952;2022-07-11T06:53:51;9.77;;;5.77;;
14754;SDS011;7469;50.906;6.952;2022-07-11T06:56:19;8.23;;;6.47;;
14754;SDS011;7469;50.906;6.952;2022-07-11T06:58:47;10.50;;;6.77;;
14754;SDS011;7469;50.906;6.952;2022-07-11T07:01:15;10.27;;;6.93;;
14754;SDS011;7469;50.906;6.952;2022-07-11T07:03:44;8.50;;;6.73;;
14754;SDS011;7469;50.906;6.952;2022-07-11T07:06:14;8.33;;;6.23;;
14754;SDS011;7469;50.906;6.952;2022-07-11T07:08:43;7.60;;;6.57;;
14754;SDS011;7469;50.906;6.952;2022-07-11T07:11:12;8.73;;;6.93;;
14754;SDS011;7469;50.906;6.952;2022-07-11T07:13:40;10.27;;;7.83;;
14754;SDS011;7469;50.906;6.952;2022-07-11T07:16:09;9.50;;;8.13;;
14754;SDS011;7469;50.906;6.952;2022-07-11T07:18:37;15.73;;;7.63;;
14754;SDS011;7469;50.906;6.952;2022-07-11T07:21:08;10.23;;;7.27;;
14754;SDS011;7469;50.906;6.952;2022-07-11T07:23:37;9.57;;;7.77;;
14754;SDS011;7469;50.906;6.952;2022-07-11T07:26:07;8.13;;;7.37;;
14754;SDS011;7469;50.906;6.952;2022-07-11T07:28:35;8.77;;;7.70;;
14754;SDS011;7469;50.906;6.952;2022-07-11T07:31:05;8.17;;;7.37;;
14754;SDS011;7469;50.906;6.952;2022-07-11T07:33:41;8.20;;;6.50;;
14754;SDS011;7469;50.906;6.952;2022-07-11T07:36:11;7.33;;;6.60;;
14754;SDS011;7469;50.906;6.952;2022-07-11T07:38:39;6.73;;;6.10;;
14754;SDS011;7469;50.906;6.952;2022-07-11T07:41:12;6.33;;;5.73;;
14754;SDS011;7469;50.906;6.952;2022-07-11T07:43:40;9.57;;;6.67;;
14754;SDS011;7469;50.906;6.952;2022-07-11T07:46:09;8.00;;;5.80;;
14754;SDS011;7469;50.906;6.952;2022-07-11T07:48:38;7.70;;;5.40;;
14754;SDS011;7469;50.906;6.952;2022-07-11T07:51:06;7.23;;;5.10;;
14754;SDS011;7469;50.906;6.952;2022-07-11T07:53:34;5.40;;;4.70;;
14754;SDS011;7469;50.906;6.952;2022-07-11T07:56:03;4.93;;;4.53;;
14754;SDS011;7469;50.906;6.952;2022-07-11T07:58:33;5.40;;;4.90;;
14754;SDS011;7469;50.906;6.952;2022-07-11T08:01:01;6.90;;;5.20;;
14754;SDS011;7469;50.906;6.952;2022-07-11T08:03:47;7.50;;;6.20;;
14754;SDS011;7469;50.906;6.952;2022-07-11T08:06:15;9.23;;;5.87;;
14754;SDS011;7469;50.906;6.952;2022-07-11T08:08:43;8.13;;;6.30;;
14754;SDS011;7469;50.906;6.952;2022-07-11T08:11:11;10.23;;;6.67;;
14754;SDS011;7469;50.906;6.952;2022-07-11T08:13:57;7.93;;;6.40;;
14754;SDS011;7469;50.906;6.952;2022-07-11T08:16:28;8.10;;;7.30;;
14754;SDS011;7469;50.906;6.952;2022-07-11T08:18:58;9.87;;;6.97;;
14754;SDS011;7469;50.906;6.952;2022-07-11T08:21:27;9.83;;;7.30;;
14754;SDS011;7469;50.906;6.952;2022-07-11T08:23:55;10.17;;;7.83;;
14754;SDS011;7469;50.906;6.952;2022-07-11T08:26:23;8.90;;;7.27;;
14754;SDS011;7469;50.906;6.952;2022-07-11T08:28:59;8.63;;;7.23;;
14754;SDS011;7469;50.906;6.952;2022-07-11T08:31:28;9.83;;;8.00;;
14754;SDS011;7469;50.906;6.952;2022-07-11T08:33:57;8.40;;;7.57;;
14754;SDS011;7469;50.906;6.952;2022-07-11T08:36:26;8.63;;;7.83;;
14754;SDS011;7469;50.906;6.952;2022-07-11T08:38:57;10.90;;;8.03;;
14754;SDS011;7469;50.906;6.952;2022-07-11T08:41:26;9.23;;;7.93;;
14754;SDS011;7469;50.906;6.952;2022-07-11T08:43:54;9.77;;;8.80;;
14754;SDS011;7469;50.906;6.952;2022-07-11T08:46:24;8.80;;;7.73;;
14754;SDS011;7469;50.906;6.952;2022-07-11T08:48:54;11.10;;;9.47;;
14754;SDS011;7469;50.906;6.952;2022-07-11T08:51:22;10.10;;;9.10;;
14754;SDS011;7469;50.906;6.952;2022-07-11T08:53:53;12.47;;;9.87;;
14754;SDS011;7469;50.906;6.952;2022-07-11T08:56:22;9.30;;;8.40;;
14754;SDS011;7469;50.906;6.952;2022-07-11T08:58:53;11.73;;;9.80;;
14754;SDS011;7469;50.906;6.952;2022-07-11T09:01:28;13.07;;;11.17;;
14754;SDS011;7469;50.906;6.952;2022-07-11T09:03:57;12.57;;;11.37;;
14754;SDS011;7469;50.906;6.952;2022-07-11T09:06:26;12.97;;;9.53;;
14754;SDS011;7469;50.906;6.952;2022-07-11T09:08:58;10.90;;;9.63;;
14754;SDS011;7469;50.906;6.952;2022-07-11T09:11:27;11.13;;;9.90;;
14754;SDS011;7469;50.906;6.952;2022-07-11T09:13:56;10.57;;;8.57;;
14754;SDS011;7469;50.906;6.952;2022-07-11T09:16:26;10.73;;;9.40;;
14754;SDS011;7469;50.906;6.952;2022-07-11T09:18:58;10.20;;;8.93;;
14754;SDS011;7469;50.906;6.952;2022-07-11T09:21:26;9.47;;;8.40;;
14754;SDS011;7469;50.906;6.952;2022-07-11T09:24:12;9.73;;;8.73;;
14754;SDS011;7469;50.906;6.952;2022-07-11T09:26:58;10.97;;;8.03;;
14754;SDS011;7469;50.906;6.952;2022-07-11T09:29:26;10.07;;;7.83;;
14754;SDS011;7469;50.906;6.952;2022-07-11T09:31:55;7.37;;;6.57;;
14754;SDS011;7469;50.906;6.952;2022-07-11T09:34:24;6.53;;;5.63;;
14754;SDS011;7469;50.906;6.952;2022-07-11T09:36:55;7.80;;;6.07;;
14754;SDS011;7469;50.906;6.952;2022-07-11T09:39:24;5.70;;;5.10;;
14754;SDS011;7469;50.906;6.952;2022-07-11T09:41:53;6.30;;;3.93;;
14754;SDS011;7469;50.906;6.952;2022-07-11T09:44:23;8.47;;;3.93;;
14754;SDS011;7469;50.906;6.952;2022-07-11T09:46:54;5.03;;;4.43;;
14754;SDS011;7469;50.906;6.952;2022-07-11T09:49:31;10.73;;;5.70;;
14754;SDS011;7469;50.906;6.952;2022-07-11T09:52:06;6.27;;;5.23;;
14754;SDS011;7469;50.906;6.952;2022-07-11T09:54:51;5.53;;;4.47;;
14754;SDS011;7469;50.906;6.952;2022-07-11T09:57:28;7.67;;;4.80;;
14754;SDS011;7469;50.906;6.952;2022-07-11T09:59:57;7.70;;;4.73;;
14754;SDS011;7469;50.906;6.952;2022-07-11T10:02:28;5.20;;;4.70;;
14754;SDS011;7469;50.906;6.952;2022-07-11T10:04:57;6.43;;;5.80;;
14754;SDS011;7469;50.906;6.952;2022-07-11T10:07:26;7.80;;;6.10;;
14754;SDS011;7469;50.906;6.952;2022-07-11T10:09:59;7.37;;;6.67;;
14754;SDS011;7469;50.906;6.952;2022-07-11T10:12:28;7.13;;;6.17;;
14754;SDS011;7469;50.906;6.952;2022-07-11T10:14:58;7.40;;;6.30;;
14754;SDS011;7469;50.906;6.952;2022-07-11T10:17:33;8.23;;;7.43;;
14754;SDS011;7469;50.906;6.952;2022-07-11T10:20:13;8.97;;;8.13;;
14754;SDS011;7469;50.906;6.952;2022-07-11T10:22:49;9.00;;;8.10;;
14754;SDS011;7469;50.906;6.952;2022-07-11T10:25:28;9.47;;;8.47;;
14754;SDS011;7469;50.906;6.952;2022-07-11T10:28:10;9.30;;;8.17;;
14754;SDS011;7469;50.906;6.952;2022-07-11T10:30:44;9.13;;;8.23;;
14754;SDS011;7469;50.906;6.952;2022-07-11T10:33:18;8.40;;;7.60;;
14754;SDS011;7469;50.906;6.952;2022-07-11T10:35:47;9.00;;;8.10;;
14754;SDS011;7469;50.906;6.952;2022-07-11T10:38:22;9.50;;;8.50;;
14754;SDS011;7469;50.906;6.952;2022-07-11T10:40:52;9.40;;;8.50;;
14754;SDS011;7469;50.906;6.952;2022-07-11T10:43:33;9.87;;;8.97;;
14754;SDS011;7469;50.906;6.952;2022-07-11T10:46:18;10.40;;;7.43;;
14754;SDS011;7469;50.906;6.952;2022-07-11T10:48:55;8.40;;;7.70;;
14754;SDS011;7469;50.906;6.952;2022-07-11T10:51:34;9.97;;;7.13;;
14754;SDS011;7469;50.906;6.952;2022-07-11T10:54:34;7.67;;;6.97;;
14754;SDS011;7469;50.906;6.952;2022-07-11T10:57:33;8.23;;;7.40;;
14754;SDS011;7469;50.906;6.952;2022-07-11T11:00:12;8.27;;;7.30;;
14754;SDS011;7469;50.906;6.952;2022-07-11T11:03:01;8.90;;;8.07;;
14754;SDS011;7469;50.906;6.952;2022-07-11T11:05:46;10.07;;;8.57;;
14754;SDS011;7469;50.906;6.952;2022-07-11T11:11:08;9.90;;;8.93;;
14754;SDS011;7469;50.906;6.952;2022-07-11T11:14:17;8.93;;;8.10;;
14754;SDS011;7469;50.906;6.952;2022-07-11T11:16:46;8.83;;;7.33;;
14754;SDS011;7469;50.906;6.952;2022-07-11T11:22:25;11.97;;;7.83;;
14754;SDS011;7469;50.906;6.952;2022-07-11T11:24:56;9.57;;;8.77;;
14754;SDS011;7469;50.906;6.952;2022-07-11T11:27:59;10.70;;;9.57;;
14754;SDS011;7469;50.906;6.952;2022-07-11T11:30:30;12.63;;;10.40;;
14754;SDS011;7469;50.906;6.952;2022-07-11T11:32:59;14.10;;;12.70;;
14754;SDS011;7469;50.906;6.952;2022-07-11T11:35:28;14.17;;;12.87;;
14754;SDS011;7469;50.906;6.952;2022-07-11T11:37:59;13.83;;;12.53;;
14754;SDS011;7469;50.906;6.952;2022-07-11T11:40:28;13.70;;;12.47;;
14754;SDS011;7469;50.906;6.952;2022-07-11T11:42:56;13.53;;;12.00;;
14754;SDS011;7469;50.906;6.952;2022-07-11T11:45:24;14.03;;;12.83;;
14754;SDS011;7469;50.906;6.952;2022-07-11T11:47:52;12.03;;;10.80;;
14754;SDS011;7469;50.906;6.952;2022-07-11T11:50:21;11.80;;;10.60;;
14754;SDS011;7469;50.906;6.952;2022-07-11T11:52:49;10.83;;;9.70;;
14754;SDS011;7469;50.906;6.952;2022-07-11T11:55:19;11.73;;;9.87;;
14754;SDS011;7469;50.906;6.952;2022-07-11T11:57:48;11.93;;;10.67;;
14754;SDS011;7469;50.906;6.952;2022-07-11T12:00:21;11.40;;;10.40;;
14754;SDS011;7469;50.906;6.952;2022-07-11T12:03:12;11.30;;;10.20;;
14754;SDS011;7469;50.906;6.952;2022-07-11T12:05:52;11.27;;;10.17;;
14754;SDS011;7469;50.906;6.952;2022-07-11T12:08:25;11.10;;;9.97;;
14754;SDS011;7469;50.906;6.952;2022-07-11T12:10:56;11.13;;;10.13;;
14754;SDS011;7469;50.906;6.952;2022-07-11T12:13:24;11.07;;;10.07;;
14754;SDS011;7469;50.906;6.952;2022-07-11T12:15:53;10.90;;;9.73;;
14754;SDS011;7469;50.906;6.952;2022-07-11T12:18:39;11.10;;;9.90;;
14754;SDS011;7469;50.906;6.952;2022-07-11T12:21:09;10.70;;;9.60;;
14754;SDS011;7469;50.906;6.952;2022-07-11T12:23:38;11.43;;;9.70;;
14754;SDS011;7469;50.906;6.952;2022-07-11T12:26:08;10.20;;;9.20;;
14754;SDS011;7469;50.906;6.952;2022-07-11T12:31:41;10.07;;;9.07;;
14754;SDS011;7469;50.906;6.952;2022-07-11T12:34:11;9.47;;;8.60;;
14754;SDS011;7469;50.906;6.952;2022-07-11T12:36:39;10.13;;;9.23;;
14754;SDS011;7469;50.906;6.952;2022-07-11T12:39:08;9.37;;;8.47;;
14754;SDS011;7469;50.906;6.952;2022-07-11T12:41:37;9.30;;;8.40;;
14754;SDS011;7469;50.906;6.952;2022-07-11T12:44:06;12.00;;;9.37;;
14754;SDS011;7469;50.906;6.952;2022-07-11T12:47:06;10.80;;;9.80;;
14754;SDS011;7469;50.906;6.952;2022-07-11T12:49:35;12.53;;;10.23;;
14754;SDS011;7469;50.906;6.952;2022-07-11T12:52:06;9.37;;;8.47;;
14754;SDS011;7469;50.906;6.952;2022-07-11T12:54:34;10.63;;;9.37;;
14754;SDS011;7469;50.906;6.952;2022-07-11T12:57:04;10.03;;;9.03;;
14754;SDS011;7469;50.906;6.952;2022-07-11T12:59:35;10.20;;;9.37;;
14754;SDS011;7469;50.906;6.952;2022-07-11T13:02:14;10.43;;;9.50;;
14754;SDS011;7469;50.906;6.952;2022-07-11T13:04:46;9.87;;;8.80;;
14754;SDS011;7469;50.906;6.952;2022-07-11T13:07:22;10.10;;;9.10;;
14754;SDS011;7469;50.906;6.952;2022-07-11T13:10:13;10.50;;;9.50;;
14754;SDS011;7469;50.906;6.952;2022-07-11T13:12:44;9.43;;;8.63;;
14754;SDS011;7469;50.906;6.952;2022-07-11T13:15:14;11.67;;;7.83;;
14754;SDS011;7469;50.906;6.952;2022-07-11T13:17:45;9.97;;;8.70;;
14754;SDS011;7469;50.906;6.952;2022-07-11T13:20:16;9.53;;;8.60;;
14754;SDS011;7469;50.906;6.952;2022-07-11T13:22:49;9.33;;;8.43;;
14754;SDS011;7469;50.906;6.952;2022-07-11T13:25:18;8.97;;;8.00;;
14754;SDS011;7469;50.906;6.952;2022-07-11T13:27:50;8.80;;;7.90;;
14754;SDS011;7469;50.906;6.952;2022-07-11T13:30:20;9.60;;;8.30;;
14754;SDS011;7469;50.906;6.952;2022-07-11T13:33:10;10.40;;;9.40;;
14754;SDS011;7469;50.906;6.952;2022-07-11T13:35:38;11.40;;;9.80;;
14754;SDS011;7469;50.906;6.952;2022-07-11T13:38:07;10.53;;;9.07;;
14754;SDS011;7469;50.906;6.952;2022-07-11T13:40:35;10.40;;;9.50;;
14754;SDS011;7469;50.906;6.952;2022-07-11T13:43:04;10.97;;;9.97;;
14754;SDS011;7469;50.906;6.952;2022-07-11T13:45:33;10.47;;;9.33;;
14754;SDS011;7469;50.906;6.952;2022-07-11T13:48:01;10.37;;;9.37;;
14754;SDS011;7469;50.906;6.952;2022-07-11T13:50:30;11.20;;;10.20;;
14754;SDS011;7469;50.906;6.952;2022-07-11T13:52:58;11.27;;;10.13;;
14754;SDS011;7469;50.906;6.952;2022-07-11T13:55:27;11.40;;;10.50;;
14754;SDS011;7469;50.906;6.952;2022-07-11T13:57:56;12.77;;;11.50;;
14754;SDS011;7469;50.906;6.952;2022-07-11T14:00:27;10.87;;;9.87;;
14754;SDS011;7469;50.906;6.952;2022-07-11T14:02:58;12.17;;;10.30;;
14754;SDS011;7469;50.906;6.952;2022-07-11T14:05:26;10.23;;;9.33;;
14754;SDS011;7469;50.906;6.952;2022-07-11T14:07:54;9.23;;;8.37;;
14754;SDS011;7469;50.906;6.952;2022-07-11T14:10:23;10.47;;;8.53;;
14754;SDS011;7469;50.906;6.952;2022-07-11T14:12:55;10.10;;;8.63;;
14754;SDS011;7469;50.906;6.952;2022-07-11T14:15:23;8.93;;;8.13;;
14754;SDS011;7469;50.906;6.952;2022-07-11T14:17:53;10.03;;;9.03;;
14754;SDS011;7469;50.906;6.952;2022-07-11T14:20:21;9.57;;;8.67;;
14754;SDS011;7469;50.906;6.952;2022-07-11T14:22:50;9.47;;;8.57;;
14754;SDS011;7469;50.906;6.952;2022-07-11T14:25:18;9.07;;;8.27;;
14754;SDS011;7469;50.906;6.952;2022-07-11T14:27:47;8.87;;;8.13;;
14754;SDS011;7469;50.906;6.952;2022-07-11T14:30:17;10.77;;;8.63;;
14754;SDS011;7469;50.906;6.952;2022-07-11T14:32:45;9.37;;;8.47;;
14754;SDS011;7469;50.906;6.952;2022-07-11T14:35:15;11.03;;;8.17;;
14754;SDS011;7469;50.906;6.952;2022-07-11T14:37:44;8.67;;;7.87;;
14754;SDS011;7469;50.906;6.952;2022-07-11T14:40:15;9.40;;;8.50;;
14754;SDS011;7469;50.906;6.952;2022-07-11T14:42:43;9.03;;;8.13;;
14754;SDS011;7469;50.906;6.952;2022-07-11T14:45:12;9.33;;;8.43;;
14754;SDS011;7469;50.906;6.952;2022-07-11T14:47:42;9.23;;;8.33;;
14754;SDS011;7469;50.906;6.952;2022-07-11T14:50:10;8.83;;;8.03;;
14754;SDS011;7469;50.906;6.952;2022-07-11T14:52:40;9.03;;;7.83;;
14754;SDS011;7469;50.906;6.952;2022-07-11T14:55:09;8.27;;;7.50;;
14754;SDS011;7469;50.906;6.952;2022-07-11T14:57:37;8.43;;;7.63;;
14754;SDS011;7469;50.906;6.952;2022-07-11T15:00:13;8.27;;;7.43;;
14754;SDS011;7469;50.906;6.952;2022-07-11T15:02:46;8.20;;;7.50;;
14754;SDS011;7469;50.906;6.952;2022-07-11T15:05:31;8.37;;;7.70;;
14754;SDS011;7469;50.906;6.952;2022-07-11T15:08:01;8.30;;;6.83;;
14754;SDS011;7469;50.906;6.952;2022-07-11T15:10:46;8.67;;;7.70;;
14754;SDS011;7469;50.906;6.952;2022-07-11T15:13:32;8.07;;;7.37;;
14754;SDS011;7469;50.906;6.952;2022-07-11T15:15:59;7.67;;;6.90;;
14754;SDS011;7469;50.906;6.952;2022-07-11T15:18:27;8.20;;;7.50;;
14754;SDS011;7469;50.906;6.952;2022-07-11T15:20:56;8.10;;;7.30;;
14754;SDS011;7469;50.906;6.952;2022-07-11T15:23:25;7.70;;;7.10;;
14754;SDS011;7469;50.906;6.952;2022-07-11T15:25:53;8.00;;;7.20;;
14754;SDS011;7469;50.906;6.952;2022-07-11T15:28:21;9.80;;;7.30;;